Time;durP1;ratioP1;P1;durP2;ratioP2;P2;SDS_P1;SDS_P2;PMS_P1;PMS_P2;Temp;Humidity;BMP_temperature;BMP_pressure;BME280_temperature;BME280_humidity;BME280_pressure;Samples;Min_cycle;Max_cycle;Signal;HPM_P1;HPM_P2
2022/11/17 00:01:07;;;;;;;3.30;1.00;;;;;;;15.35;56.09;97120.91;5094547;28;20032;-48
2022/11/17 00:03:47;;;;;;;4.57;1.27;;;;;;;15.41;56.92;97101.31;5092849;28;20527;-48
2022/11/17 00:06:25;;;;;;;2.53;0.75;;;;;;;15.46;55.96;97106.59;5094198;28;20028;-48
2022/11/17 00:08:57;;;;;;;3.53;0.90;;;;;;;15.47;56.11;97087.03;5094179;28;20028;-49
2022/11/17 00:14:31;;;;;;;9.27;1.50;;;;;;;15.60;55.50;97083.00;5094107;28;20473;-48
2022/11/17 00:14:35;;;;;;;7.75;1.20;;;;;;;15.55;56.07;97060.03;5093755;28;20075;-49
2022/11/17 00:17:16;;;;;;;3.30;1.00;;;;;;;15.54;55.16;97061.09;5094147;28;20039;-48
2022/11/17 00:22:33;;;;;;;3.50;1.20;;;;;;;15.33;56.18;97054.31;5094151;28;20449;-48
2022/11/17 00:25:14;;;;;;;2.80;0.90;;;;;;;15.29;56.43;97069.13;5093628;28;20044;-48
2022/11/17 00:27:58;;;;;;;1.85;0.90;;;;;;;15.14;56.73;97041.69;5092323;28;20032;-48
2022/11/17 00:36:12;;;;;;;2.85;1.05;;;;;;;15.27;55.78;97013.09;5092902;28;20077;-48
2022/11/17 00:38:51;;;;;;;4.22;1.83;;;;;;;15.22;56.38;97005.22;5093490;28;20032;-48
2022/11/17 00:41:33;;;;;;;1.73;0.80;;;;;;;15.22;56.21;97066.00;5091628;28;20513;-48
2022/11/17 00:44:09;;;;;;;2.13;0.70;;;;;;;15.16;56.35;97086.34;5088270;28;20112;-48
2022/11/17 00:46:42;;;;;;;1.45;0.75;;;;;;;15.11;56.48;97060.75;5093283;28;20039;-48
2022/11/17 00:49:15;;;;;;;6.50;1.35;;;;;;;15.05;57.17;97045.97;5092096;28;20020;-48
2022/11/17 00:51:41;;;;;;;9.68;1.50;;;;;;;15.12;57.00;97072.09;5093197;28;20031;-48
2022/11/17 00:54:31;;;;;;;4.32;1.13;;;;;;;15.04;57.64;97030.38;5091726;28;20028;-48
2022/11/17 00:57:03;;;;;;;2.15;0.80;;;;;;;15.11;57.24;97047.53;5077670;28;20039;-48
2022/11/17 00:59:35;;;;;;;5.22;1.33;;;;;;;15.07;57.27;97061.53;5093037;28;20532;-48
2022/11/17 01:02:09;;;;;;;4.40;0.80;;;;;;;15.05;57.14;97068.94;5091711;28;20032;-48
2022/11/17 01:04:43;;;;;;;6.03;1.25;;;;;;;15.08;57.61;97058.63;5093018;28;20110;-48
2022/11/17 01:07:25;;;;;;;2.63;0.80;;;;;;;15.25;56.25;96996.72;5092926;28;20024;-48
2022/11/17 01:09:59;;;;;;;4.97;1.65;;;;;;;15.28;56.02;97078.13;5092936;28;20020;-48
2022/11/17 01:12:32;;;;;;;4.28;0.93;;;;;;;15.25;55.96;97100.59;5092698;28;20024;-48
2022/11/17 01:14:58;;;;;;;4.95;0.90;;;;;;;15.21;56.41;97096.91;5092853;28;20028;-48
2022/11/17 01:17:24;;;;;;;7.78;1.38;;;;;;;15.26;55.89;97091.59;5092609;28;20062;-48
2022/11/17 01:19:59;;;;;;;2.60;0.70;;;;;;;15.27;55.56;97092.38;5091245;28;20031;-48
2022/11/17 01:22:46;;;;;;;4.32;0.68;;;;;;;15.25;55.77;97097.97;5092584;28;20035;-48
2022/11/17 01:25:15;;;;;;;2.55;0.73;;;;;;;15.31;55.47;97088.97;5092296;28;20091;-48
2022/11/17 01:27:41;;;;;;;3.05;0.93;;;;;;;15.38;55.04;97102.66;5092371;28;20028;-48
2022/11/17 01:30:21;;;;;;;7.28;1.27;;;;;;;15.36;55.29;97096.84;5092331;28;20031;-48
2022/11/17 01:32:59;;;;;;;11.30;1.30;;;;;;;15.43;55.22;97132.78;5092373;28;20081;-48
2022/11/17 01:35:44;;;;;;;3.45;0.70;;;;;;;15.54;54.60;97118.47;5091157;28;20040;-48
2022/11/17 01:38:15;;;;;;;3.05;0.80;;;;;;;15.57;54.02;97104.69;5092379;28;20115;-48
2022/11/17 01:41:15;;;;;;;5.97;1.10;;;;;;;15.48;54.51;97156.56;5092271;28;20036;-48
2022/11/17 01:44:05;;;;;;;3.45;0.60;;;;;;;15.52;54.42;97147.03;5091120;28;20103;-48
2022/11/17 01:46:40;;;;;;;4.28;1.20;;;;;;;15.61;54.98;97179.78;5091886;28;20028;-48
2022/11/17 01:49:20;;;;;;;3.08;0.73;;;;;;;15.68;54.16;97169.72;5090295;28;20181;-48
2022/11/17 01:51:59;;;;;;;3.60;0.60;;;;;;;15.73;53.89;97192.72;5092224;28;20020;-49
2022/11/17 01:54:36;;;;;;;5.80;0.90;;;;;;;15.70;54.23;97182.69;5092049;28;20020;-48
2022/11/17 01:57:35;;;;;;;3.28;1.00;;;;;;;15.70;54.10;97178.16;5092003;28;20432;-48
2022/11/17 02:00:11;;;;;;;8.20;0.65;;;;;;;15.74;54.04;97181.88;5085449;28;20040;-48
2022/11/17 02:02:40;;;;;;;4.47;0.85;;;;;;;15.77;53.98;97141.69;5092117;28;20402;-48
2022/11/17 02:05:26;;;;;;;3.95;0.90;;;;;;;15.70;54.11;97145.66;5090672;28;20024;-48
2022/11/17 02:07:58;;;;;;;5.75;1.40;;;;;;;15.65;54.25;97148.31;5090765;28;20106;-48
2022/11/17 02:10:42;;;;;;;2.97;1.10;;;;;;;15.58;54.53;97145.97;5091954;28;20043;-48
2022/11/17 02:13:15;;;;;;;2.85;0.95;;;;;;;15.56;54.75;97148.06;5090575;28;20020;-48
2022/11/17 02:16:14;;;;;;;4.10;0.68;;;;;;;15.55;54.63;97142.00;5091774;28;20023;-48
2022/11/17 02:18:36;;;;;;;3.33;0.80;;;;;;;15.52;55.17;97155.75;5088803;28;20083;-48
2022/11/17 02:21:32;;;;;;;2.65;1.23;;;;;;;15.55;54.87;97143.84;5091801;28;20539;-48
2022/11/17 02:24:25;;;;;;;4.45;1.10;;;;;;;15.55;54.54;97141.19;5090235;28;20044;-48
2022/11/17 02:27:32;;;;;;;4.65;0.73;;;;;;;15.55;54.29;97144.66;5091504;28;20062;-48
2022/11/17 02:30:24;;;;;;;2.95;1.23;;;;;;;15.55;54.22;97165.00;5029358;28;20041;-48
2022/11/17 02:33:27;;;;;;;8.40;2.13;;;;;;;15.41;54.47;97142.84;5028885;28;20439;-48
2022/11/17 02:36:12;;;;;;;6.93;1.15;;;;;;;15.46;54.23;97133.03;5029314;28;20033;-48
2022/11/17 02:38:44;;;;;;;1.80;0.63;;;;;;;15.62;53.27;97138.28;5029444;28;20065;-48
2022/11/17 02:41:29;;;;;;;4.05;1.15;;;;;;;15.64;53.26;97121.06;5029306;28;20057;-48
2022/11/17 02:44:40;;;;;;;2.35;0.77;;;;;;;15.58;53.35;97140.66;5010551;28;20487;-48
2022/11/17 02:50:24;;;;;;;7.43;1.15;;;;;;;15.69;53.13;97130.81;5029026;28;20045;-48
2022/11/17 02:52:58;;;;;;;5.43;1.10;;;;;;;15.69;52.98;97122.91;5012660;28;20034;-48
2022/11/17 02:55:32;;;;;;;2.38;0.88;;;;;;;15.69;52.40;97128.19;5029161;28;20064;-48
2022/11/17 02:58:23;;;;;;;2.25;0.70;;;;;;;15.56;53.17;97135.63;5029995;28;20026;-48
2022/11/17 03:00:57;;;;;;;2.20;0.68;;;;;;;15.63;52.62;97122.13;5016378;28;20034;-48
2022/11/17 03:03:47;;;;;;;4.43;1.00;;;;;;;15.63;52.24;97150.44;5032886;28;20492;-48
2022/11/17 03:06:54;;;;;;;4.43;0.93;;;;;;;15.69;52.31;97109.66;5081039;28;20266;-48
2022/11/17 03:09:54;;;;;;;7.95;1.40;;;;;;;15.66;52.06;97108.38;5085493;28;20044;-48
2022/11/17 03:12:28;;;;;;;5.05;0.75;;;;;;;15.64;52.28;97107.84;5093823;28;20127;-48
2022/11/17 03:15:16;;;;;;;3.67;0.80;;;;;;;15.62;52.33;97140.94;5095132;28;20062;-48
2022/11/17 03:18:15;;;;;;;2.58;0.50;;;;;;;15.57;52.36;97141.72;5093751;28;20473;-48
2022/11/17 03:20:56;;;;;;;5.20;1.33;;;;;;;15.53;52.49;97140.66;5094914;28;20034;-49
2022/11/17 03:24:12;;;;;;;5.93;1.08;;;;;;;15.60;52.60;97127.97;5094686;28;20501;-49
2022/11/17 03:26:49;;;;;;;3.47;0.57;;;;;;;15.73;51.94;97131.91;5094830;28;20098;-48
2022/11/17 03:29:44;;;;;;;;;;;;;;;;;;;;;
2022/11/17 03:32:17;;;;;;;2.90;0.68;;;;;;;15.59;51.58;97134.31;5094769;28;20016;-48
2022/11/17 03:35:05;;;;;;;1.88;0.70;;;;;;;15.52;52.22;97134.59;5094750;28;20069;-48
2022/11/17 03:37:37;;;;;;;3.35;0.80;;;;;;;15.54;52.15;97152.84;5094693;28;20043;-48
2022/11/17 03:40:19;;;;;;;2.25;0.90;;;;;;;15.49;52.36;97163.44;5093276;28;20031;-48
2022/11/17 03:43:01;;;;;;;2.50;0.63;;;;;;;15.51;52.69;97145.44;5094590;28;20028;-48
2022/11/17 03:45:41;;;;;;;1.73;0.50;;;;;;;15.58;52.00;97167.13;5093286;28;20111;-48
2022/11/17 03:48:24;;;;;;;3.30;0.98;;;;;;;15.57;51.99;97161.03;5094600;28;20092;-48
2022/11/17 03:51:03;;;;;;;1.48;0.60;;;;;;;15.68;51.84;97163.63;5094430;28;20036;-48
2022/11/17 03:53:34;;;;;;;1.65;0.80;;;;;;;15.62;52.06;97151.50;5094233;28;20028;-48
2022/11/17 03:56:09;;;;;;;2.17;0.73;;;;;;;15.63;51.64;97153.84;5093040;28;20048;-48
2022/11/17 03:58:49;;;;;;;3.58;1.20;;;;;;;15.62;52.19;97143.56;5094344;28;20051;-48
2022/11/17 04:01:29;;;;;;;3.92;0.55;;;;;;;15.68;51.92;97145.91;5094231;28;20062;-48
2022/11/17 04:04:03;;;;;;;1.13;0.50;;;;;;;15.66;52.03;97134.81;5094214;28;20157;-48
2022/11/17 04:06:46;;;;;;;1.00;0.65;;;;;;;15.58;52.15;97144.09;5094169;28;20024;-48
2022/11/17 04:09:21;;;;;;;1.40;0.45;;;;;;;15.47;52.51;97142.53;5093842;28;20028;-48
2022/11/17 04:17:54;;;;;;;3.83;0.80;;;;;;;15.07;53.69;97167.22;5093493;28;20042;-48
2022/11/17 04:20:35;;;;;;;3.08;0.85;;;;;;;15.12;53.82;97140.81;5092484;28;20493;-48
2022/11/17 04:23:13;;;;;;;2.97;0.77;;;;;;;15.14;53.66;97136.81;5092623;28;20043;-48
2022/11/17 04:28:43;;;;;;;1.98;0.63;;;;;;;15.26;53.18;97147.09;5094033;28;20513;-48
2022/11/17 04:31:36;;;;;;;1.20;0.50;;;;;;;15.36;53.15;97135.72;5092310;28;20406;-48
2022/11/17 04:34:10;;;;;;;6.20;1.08;;;;;;;15.44;53.21;97137.03;5093636;28;20056;-48
2022/11/17 04:37:15;;;;;;;2.67;0.77;;;;;;;15.47;52.79;97149.69;5092162;28;20499;-48
2022/11/17 04:39:48;;;;;;;3.42;1.08;;;;;;;15.45;53.14;97144.66;5091426;28;20032;-48
2022/11/17 04:42:25;;;;;;;4.35;1.05;;;;;;;15.50;52.82;97126.16;5093273;28;20069;-48
2022/11/17 04:44:55;;;;;;;3.97;1.10;;;;;;;15.57;52.85;97139.06;5091962;28;20024;-48
2022/11/17 04:47:21;;;;;;;2.65;0.80;;;;;;;15.55;52.89;97136.72;5091864;28;20036;-48
2022/11/17 04:50:01;;;;;;;3.60;0.70;;;;;;;15.56;52.78;97130.34;5093248;28;20024;-48
2022/11/17 04:52:33;;;;;;;2.53;0.60;;;;;;;15.59;52.56;97155.47;5093344;28;20024;-48
2022/11/17 04:55:41;;;;;;;3.63;0.65;;;;;;;15.53;52.98;97156.53;5093257;28;20028;-48
2022/11/17 04:58:11;;;;;;;;;;;;;;;15.58;52.98;97122.16;5092108;28;20071;-48
2022/11/17 05:01:11;;;;;;;1.98;0.50;;;;;;;15.62;52.77;97138.28;5093122;28;19991;-48
2022/11/17 05:03:51;;;;;;;2.80;0.70;;;;;;;15.57;53.02;97137.25;5093037;28;20131;-48
2022/11/17 05:06:30;;;;;;;2.60;0.80;;;;;;;15.55;52.98;97131.44;5092992;28;20024;-48
2022/11/17 05:09:07;;;;;;;3.00;0.60;;;;;;;15.60;53.15;97146.47;5091423;28;20050;-48
2022/11/17 05:14:34;;;;;;;3.45;0.77;;;;;;;15.64;52.79;97152.81;5092887;28;20043;-48
2022/11/17 05:17:12;;;;;;;4.60;0.77;;;;;;;15.57;53.02;97162.88;5092708;28;20051;-49
2022/11/17 05:19:45;;;;;;;6.90;0.75;;;;;;;15.53;53.29;97164.47;5091320;28;20043;-48
2022/11/17 05:26:03;;;;;;;2.00;0.52;;;;;;;15.61;52.95;97163.13;5092416;28;20170;-48
2022/11/17 05:28:46;;;;;;;4.05;0.95;;;;;;;15.65;52.95;97169.47;5092661;28;20508;-48
2022/11/17 05:31:26;;;;;;;1.63;0.47;;;;;;;15.71;52.67;97181.59;5088956;28;20039;-48
2022/11/17 05:34:08;;;;;;;2.08;0.73;;;;;;;15.70;52.94;97193.25;5092445;28;20066;-48
2022/11/17 05:36:38;;;;;;;3.35;0.88;;;;;;;15.76;52.42;97181.63;5092283;28;20040;-49
2022/11/17 05:39:21;;;;;;;3.25;0.70;;;;;;;15.81;52.22;97178.94;5092333;28;20443;-48
2022/11/17 05:41:58;;;;;;;5.53;1.05;;;;;;;15.87;52.34;97155.91;5092129;28;20505;-48
2022/11/17 05:45:02;;;;;;;3.38;0.80;;;;;;;16.05;51.68;97160.56;5090989;28;20039;-48
2022/11/17 05:47:37;;;;;;;2.08;0.70;;;;;;;15.93;51.65;97171.47;5076617;28;20043;-48
2022/11/17 05:50:12;;;;;;;4.28;0.80;;;;;;;15.83;51.72;97173.38;5090554;28;20634;-48
2022/11/17 05:53:05;;;;;;;3.95;1.20;;;;;;;15.77;52.42;97186.66;5092198;28;20456;-46
2022/11/17 05:56:01;;;;;;;3.40;1.08;;;;;;;15.86;52.09;97189.50;5092131;28;20031;-46
2022/11/17 05:58:56;;;;;;;5.47;0.93;;;;;;;16.01;51.42;97183.34;5029664;28;20043;-46
2022/11/17 06:01:40;;;;;;;6.40;1.00;;;;;;;16.12;51.66;97190.19;5013154;28;20072;-45
2022/11/17 06:04:32;;;;;;;5.15;0.80;;;;;;;16.19;51.14;97181.94;5029682;28;20060;-46
2022/11/17 06:07:20;;;;;;;;;;;;;;;;;;;;;
2022/11/17 06:09:56;;;;;;;4.93;0.80;;;;;;;16.32;50.46;97186.63;5029906;28;20423;-45
2022/11/17 06:12:45;;;;;;;4.40;0.80;;;;;;;16.22;51.20;97152.28;5029451;28;20127;-46
2022/11/17 06:15:37;;;;;;;4.78;1.00;;;;;;;16.20;51.05;97228.53;5029471;28;20041;-46
2022/11/17 06:18:36;;;;;;;3.50;1.00;;;;;;;16.02;51.58;97197.38;5024180;28;20504;-45
2022/11/17 06:21:20;;;;;;;5.22;1.05;;;;;;;16.00;51.80;97210.88;5016529;28;20563;-46
2022/11/17 06:23:58;;;;;;;1.52;0.70;;;;;;;15.96;51.89;97201.91;5017670;28;20529;-46
2022/11/17 06:26:28;;;;;;;3.63;1.05;;;;;;;15.83;51.85;97205.91;5029303;28;20044;-46
2022/11/17 06:29:19;;;;;;;3.38;1.00;;;;;;;15.72;51.98;97207.81;5029381;28;20065;-46
2022/11/17 06:32:11;;;;;;;8.60;1.13;;;;;;;15.66;52.44;97213.38;5013445;28;20104;-46
2022/11/17 06:35:07;;;;;;;1.80;0.80;;;;;;;15.58;52.68;97204.13;5041088;28;20159;-46
2022/11/17 06:37:43;;;;;;;2.20;0.65;;;;;;;15.62;52.46;97217.63;5094403;28;20393;-46
2022/11/17 06:40:26;;;;;;;4.18;1.48;;;;;;;15.63;52.21;97219.19;5095656;28;20444;-46
2022/11/17 06:46:08;;;;;;;2.80;1.77;;;;;;;15.49;52.75;97213.66;5071464;28;20062;-46
2022/11/17 06:48:53;;;;;;;8.77;1.20;;;;;;;15.44;53.30;97216.34;5095666;28;20020;-46
2022/11/17 06:51:31;;;;;;;2.65;0.65;;;;;;;15.37;53.45;97208.66;5095515;28;20020;-46
2022/11/17 06:54:39;;;;;;;3.13;1.20;;;;;;;15.26;53.65;97207.91;5095356;28;20456;-46
2022/11/17 06:57:20;;;;;;;4.32;1.08;;;;;;;15.16;53.85;97199.97;5088633;28;20463;-46
2022/11/17 07:00:01;;;;;;;2.88;1.00;;;;;;;15.08;54.51;97216.38;5095506;28;20035;-46
2022/11/17 07:02:30;;;;;;;3.05;0.90;;;;;;;15.13;54.24;97219.81;5093933;28;20024;-46
2022/11/17 07:04:56;;;;;;;3.00;0.90;;;;;;;15.20;54.13;97216.88;5093514;28;20039;-46
2022/11/17 07:07:37;;;;;;;3.63;1.20;;;;;;;15.34;53.87;97209.22;5093723;28;20062;-46
2022/11/17 07:10:36;;;;;;;3.25;1.20;;;;;;;15.51;53.29;97217.66;5095161;28;20034;-46
2022/11/17 07:17:00;;;;;;;2.35;0.82;;;;;;;15.87;52.96;97222.81;5095040;28;20442;-46
2022/11/17 07:19:52;;;;;;;2.97;0.80;;;;;;;16.34;51.75;97226.88;5066234;28;20032;-46
2022/11/17 07:23:07;;;;;;;3.78;1.17;;;;;;;16.62;50.67;97231.72;5094666;28;20127;-46
2022/11/17 07:25:39;;;;;;;3.75;0.82;;;;;;;16.44;50.82;97231.31;5064666;28;20518;-46
2022/11/17 07:28:17;;;;;;;2.38;1.20;;;;;;;16.30;51.38;97233.78;5094782;28;20051;-46
2022/11/17 07:34:07;;;;;;;2.42;0.63;;;;;;;16.33;51.53;97227.13;5072098;28;20029;-46
2022/11/17 07:40:02;;;;;;;5.32;1.70;;;;;;;17.82;49.05;97220.59;5072189;28;20153;-46
2022/11/17 07:43:17;;;;;;;4.55;1.20;;;;;;;18.34;46.51;97234.84;5072189;28;20026;-46
2022/11/17 07:45:57;;;;;;;;;;;;;;;;;;;;;
2022/11/17 07:48:32;;;;;;;3.50;0.88;;;;;;;18.51;45.62;97245.78;5069048;28;20032;-46
2022/11/17 07:51:11;;;;;;;3.45;0.95;;;;;;;18.25;46.39;97236.56;5062796;28;20051;-46
2022/11/17 07:53:54;;;;;;;4.18;0.60;;;;;;;18.01;46.86;97233.94;5056447;28;20036;-46
2022/11/17 07:56:52;;;;;;;5.45;1.20;;;;;;;17.90;46.97;97238.59;5055042;28;20430;-46
2022/11/17 07:59:48;;;;;;;4.43;1.02;;;;;;;17.95;47.42;97234.00;5071675;28;20055;-46
2022/11/17 08:02:34;;;;;;;2.83;0.90;;;;;;;18.24;46.35;97240.31;5071818;28;20119;-46
2022/11/17 08:05:03;;;;;;;3.95;0.98;;;;;;;18.31;46.37;97241.53;5071829;28;20070;-46
2022/11/17 08:07:50;;;;;;;2.70;0.88;;;;;;;18.62;46.03;97241.09;5071730;28;20074;-46
2022/11/17 08:13:38;;;;;;;6.22;1.27;;;;;;;19.71;43.76;97246.28;5094252;28;20035;-46
2022/11/17 08:16:49;;;;;;;;;;;;;;;;;;;;;
2022/11/17 08:20:05;;;;;;;2.80;0.88;;;;;;;20.20;42.15;97249.31;5094016;28;20505;-46
2022/11/17 08:23:06;;;;;;;6.03;0.90;;;;;;;20.38;41.84;97253.72;5092465;28;20032;-46
2022/11/17 08:25:38;;;;;;;1.60;0.68;;;;;;;20.62;41.58;97245.50;5093608;28;20476;-46
2022/11/17 08:28:13;;;;;;;8.73;1.20;;;;;;;20.54;40.81;97255.00;5093736;28;20520;-46
2022/11/17 08:31:12;;;;;;;5.47;0.60;;;;;;;20.61;41.31;97259.16;5092453;28;20028;-46
2022/11/17 08:33:44;;;;;;;6.13;0.90;;;;;;;20.73;40.55;97262.06;5091804;28;20036;-46
2022/11/17 08:36:22;;;;;;;2.30;0.60;;;;;;;20.90;40.75;97266.75;5093554;28;20034;-46
2022/11/17 08:39:06;;;;;;;4.28;0.65;;;;;;;21.03;39.72;97262.47;5092236;28;20513;-46
2022/11/17 08:41:37;;;;;;;2.15;0.70;;;;;;;20.99;39.96;97246.28;5093433;28;20032;-46
2022/11/17 08:44:18;;;;;;;1.80;0.70;;;;;;;21.09;39.61;97234.56;5093427;28;20028;-47
2022/11/17 08:46:59;;;;;;;6.07;1.10;;;;;;;21.25;40.13;97246.44;5093381;28;20028;-46
2022/11/17 08:49:54;;;;;;;3.00;0.93;;;;;;;21.77;38.80;97243.25;5093005;28;20428;-46
2022/11/17 08:52:29;;;;;;;2.78;1.05;;;;;;;22.03;38.76;97227.28;5061361;28;20537;-47
2022/11/17 08:55:04;;;;;;;6.72;1.20;;;;;;;22.00;38.12;97225.25;5092682;28;20048;-46
2022/11/17 08:57:42;;;;;;;3.75;0.90;;;;;;;22.10;38.72;97242.88;5092725;28;20038;-47
2022/11/17 09:00:41;;;;;;;4.53;0.90;;;;;;;22.36;38.29;97245.63;5092860;28;20482;-46
2022/11/17 09:03:48;;;;;;;6.03;1.30;;;;;;;22.44;38.01;97242.19;5067873;28;20508;-46
2022/11/17 09:06:37;;;;;;;5.30;1.10;;;;;;;22.68;37.43;97235.59;5068732;28;20050;-46
2022/11/17 09:09:09;;;;;;;3.47;1.05;;;;;;;22.72;37.38;97237.31;5091441;28;20040;-47
2022/11/17 09:11:53;;;;;;;3.28;0.90;;;;;;;22.85;36.87;97234.78;5092936;28;20371;-47
2022/11/17 09:14:21;;;;;;;5.68;1.30;;;;;;;22.82;36.83;97243.44;5092889;28;20111;-46
2022/11/17 09:17:30;;;;;;;5.78;1.33;;;;;;;23.04;37.10;97231.78;5091451;28;20039;-46
2022/11/17 09:19:59;;;;;;;5.22;1.35;;;;;;;23.28;36.12;97226.72;5092722;28;20046;-46
2022/11/17 09:25:52;;;;;;;3.15;1.17;;;;;;;23.28;36.14;97234.75;5043056;28;20045;-47
2022/11/17 09:28:42;;;;;;;2.20;1.00;;;;;;;23.31;36.08;97225.28;5033534;28;20044;-46
2022/11/17 09:31:39;;;;;;;6.57;1.02;;;;;;;23.35;35.77;97242.28;5050161;28;20124;-46
2022/11/17 09:34:28;;;;;;;4.25;1.10;;;;;;;23.36;36.25;97235.81;5047353;28;20037;-47
2022/11/17 09:37:03;;;;;;;2.63;0.93;;;;;;;23.49;35.70;97229.47;5050100;28;20384;-46
2022/11/17 09:42:49;;;;;;;5.05;1.95;;;;;;;23.15;36.60;97230.38;5049968;28;20041;-46
2022/11/17 09:45:30;;;;;;;4.13;1.20;;;;;;;23.21;36.24;97234.44;5049966;28;20037;-47
2022/11/17 09:48:08;;;;;;;3.28;1.17;;;;;;;22.26;37.74;97252.06;5033248;28;20025;-46
2022/11/17 09:50:37;;;;;;;3.97;1.10;;;;;;;21.85;38.50;97236.34;5049849;28;20472;-46
2022/11/17 09:53:21;;;;;;;3.10;1.42;;;;;;;22.02;39.13;97241.75;5032979;28;20126;-46
2022/11/17 09:55:54;;;;;;;3.75;1.20;;;;;;;22.87;37.55;97232.59;5076702;28;20042;-46
2022/11/17 09:58:29;;;;;;;4.95;1.50;;;;;;;23.25;36.78;97232.69;5090900;28;20040;-46
2022/11/17 10:00:55;;;;;;;5.75;1.02;;;;;;;23.88;36.16;97232.97;5092018;28;20032;-46
2022/11/17 10:03:27;;;;;;;15.38;4.85;;;;;;;24.39;35.00;97235.69;5090769;28;20046;-47
2022/11/17 10:05:54;;;;;;;3.85;1.20;;;;;;;24.65;34.31;97229.34;5092059;28;20028;-46
2022/11/17 10:08:37;;;;;;;9.32;3.22;;;;;;;24.72;34.72;97216.97;5091771;28;20027;-46
2022/11/17 10:11:30;;;;;;;14.50;2.20;;;;;;;24.64;34.59;97220.50;5090694;28;20070;-46
2022/11/17 10:13:50;;;;;;;11.65;2.30;;;;;;;24.30;34.79;97230.34;5091761;28;20038;-46
2022/11/17 10:16:15;;;;;;;5.22;1.90;;;;;;;24.02;34.98;97227.38;5091855;28;20027;-46
2022/11/17 10:18:41;;;;;;;6.25;1.40;;;;;;;23.80;35.13;97228.44;5090634;28;20024;-46
2022/11/17 10:21:08;;;;;;;8.68;1.73;;;;;;;23.61;36.02;97230.72;5090497;28;20497;-46
2022/11/17 10:23:36;;;;;;;6.18;1.33;;;;;;;23.39;35.69;97218.34;5090312;28;20064;-46
2022/11/17 10:26:08;;;;;;;4.38;1.67;;;;;;;23.35;36.03;97209.38;5091849;28;20545;-46
2022/11/17 10:28:33;;;;;;;3.08;1.30;;;;;;;23.27;36.31;97219.78;5090541;28;20032;-46
2022/11/17 10:31:03;;;;;;;7.07;1.60;;;;;;;23.42;36.47;97212.34;5090496;28;20028;-46
2022/11/17 10:33:36;;;;;;;6.40;1.50;;;;;;;23.26;36.53;97217.41;5091682;28;20025;-46
2022/11/17 10:36:24;;;;;;;2.60;1.23;;;;;;;22.86;37.02;97210.41;5091711;28;20436;-46
2022/11/17 10:38:53;;;;;;;8.35;1.60;;;;;;;22.60;37.87;97209.63;5089659;28;20044;-46
2022/11/17 10:41:42;;;;;;;4.82;1.50;;;;;;;22.75;37.96;97211.81;5090320;28;20025;-46
2022/11/17 10:44:11;;;;;;;6.00;1.77;;;;;;;23.06;37.11;97202.81;5090645;28;20036;-46
2022/11/17 10:46:57;;;;;;;6.28;1.42;;;;;;;23.08;36.51;97198.75;5091619;28;20393;-46
2022/11/17 10:49:29;;;;;;;5.55;1.50;;;;;;;21.84;38.27;97203.53;5090320;28;20020;-46
2022/11/17 10:52:08;;;;;;;14.13;1.55;;;;;;;20.90;40.71;97224.06;5091613;28;20436;-46
2022/11/17 10:54:34;;;;;;;21.67;1.88;;;;;;;20.26;42.21;97218.81;5091549;28;20024;-46
2022/11/17 10:57:04;;;;;;;13.98;2.03;;;;;;;19.90;43.10;97223.03;5090160;28;20031;-46
2022/11/17 10:59:32;;;;;;;4.72;1.50;;;;;;;19.72;43.35;97195.44;5091606;28;20028;-46
2022/11/17 11:02:26;;;;;;;13.00;1.73;;;;;;;19.54;44.27;97190.97;5090137;28;20027;-46
2022/11/17 11:05:11;;;;;;;3.58;1.25;;;;;;;19.59;44.39;97206.03;5091463;28;20073;-46
2022/11/17 11:07:38;;;;;;;10.80;1.48;;;;;;;19.53;44.35;97194.69;5091556;28;20043;-46
2022/11/17 11:10:10;;;;;;;8.05;1.60;;;;;;;19.35;44.69;97199.78;5091405;28;20031;-46
2022/11/17 11:12:43;;;;;;;4.90;1.63;;;;;;;19.26;44.84;97204.22;5091424;28;20218;-46
2022/11/17 11:15:20;;;;;;;4.13;1.30;;;;;;;19.21;44.65;97182.25;5091556;28;20058;-46
2022/11/17 11:17:46;;;;;;;2.72;0.95;;;;;;;19.04;45.07;97196.13;5090101;28;20570;-46
2022/11/17 11:20:17;;;;;;;10.13;1.85;;;;;;;18.94;45.88;97200.50;5092784;28;20032;-46
2022/11/17 11:22:58;;;;;;;3.28;1.13;;;;;;;18.85;46.19;97198.78;5095019;28;20052;-46
2022/11/17 11:25:50;;;;;;;4.00;1.20;;;;;;;18.82;46.08;97200.19;5094786;28;20425;-45
2022/11/17 11:28:42;;;;;;;3.53;1.52;;;;;;;18.71;46.46;97185.44;5094926;28;20028;-45
2022/11/17 11:31:22;;;;;;;5.43;1.52;;;;;;;18.66;46.36;97194.28;5093578;28;20035;-46
2022/11/17 11:34:03;;;;;;;6.38;1.50;;;;;;;18.50;46.83;97184.97;5093785;28;20024;-46
2022/11/17 11:36:53;;;;;;;6.63;1.48;;;;;;;18.54;47.55;97188.63;5093571;28;20035;-46
2022/11/17 11:39:39;;;;;;;5.88;1.38;;;;;;;18.63;46.95;97186.09;5094835;28;20030;-46
2022/11/17 11:42:32;;;;;;;6.95;1.27;;;;;;;18.61;47.47;97182.94;5094683;28;20020;-46
2022/11/17 11:45:20;;;;;;;6.32;1.80;;;;;;;18.51;47.68;97187.34;5093388;28;20077;-46
2022/11/17 11:48:15;;;;;;;7.95;1.60;;;;;;;18.46;48.06;97181.31;5094626;28;20039;-46
2022/11/17 11:50:46;;;;;;;4.97;1.65;;;;;;;18.36;48.10;97180.38;5094482;28;20032;-45
2022/11/17 11:53:31;;;;;;;4.00;1.73;;;;;;;18.34;48.71;97174.56;5094737;28;20024;-46
2022/11/17 11:56:18;;;;;;;8.40;1.70;;;;;;;18.38;48.78;97160.72;5094427;28;20401;-45
2022/11/17 11:59:00;;;;;;;4.80;1.10;;;;;;;18.33;48.45;97170.31;5093049;28;20437;-45
2022/11/17 12:01:30;;;;;;;3.25;1.17;;;;;;;18.30;48.70;97164.78;5092988;28;20119;-46
2022/11/17 12:04:03;;;;;;;4.25;1.27;;;;;;;18.22;48.91;97157.47;5094282;28;20034;-46
2022/11/17 12:06:40;;;;;;;5.00;1.17;;;;;;;18.14;49.01;97151.72;5094275;28;20028;-46
2022/11/17 12:09:27;;;;;;;2.80;1.23;;;;;;;18.10;49.39;97161.34;5094197;28;20020;-46
2022/11/17 12:12:00;;;;;;;3.83;1.35;;;;;;;18.19;49.37;97139.47;5094293;28;20767;-46
2022/11/17 12:14:31;;;;;;;3.33;0.80;;;;;;;18.27;49.16;97154.72;5094004;28;20494;-46
2022/11/17 12:17:24;;;;;;;4.75;1.50;;;;;;;18.34;49.27;97150.66;5093955;28;20052;-45
2022/11/17 12:20:01;;;;;;;5.03;1.90;;;;;;;18.30;49.19;97148.88;5093992;28;20107;-46
2022/11/17 12:22:30;;;;;;;9.32;3.35;;;;;;;18.14;49.22;97130.47;5076074;28;20032;-46
2022/11/17 12:25:35;;;;;;;10.95;4.03;;;;;;;17.96;50.31;97133.94;5093674;28;20051;-45
2022/11/17 12:28:37;;;;;;;6.95;3.13;;;;;;;17.90;50.33;97124.47;5092485;28;20020;-46
2022/11/17 12:31:09;;;;;;;7.15;3.50;;;;;;;17.85;50.89;97121.84;5092384;28;20037;-46
2022/11/17 12:33:53;;;;;;;7.78;2.33;;;;;;;17.94;50.82;97114.84;5093596;28;20076;-46
2022/11/17 12:36:30;;;;;;;4.20;2.55;;;;;;;18.02;50.46;97113.41;5092320;28;20177;-46
2022/11/17 12:39:25;;;;;;;4.97;2.10;;;;;;;18.08;50.38;97110.41;5093556;28;20059;-45
2022/11/17 12:41:51;;;;;;;4.53;1.67;;;;;;;18.27;50.05;97109.59;5091976;28;20024;-46
2022/11/17 12:44:48;;;;;;;5.82;1.73;;;;;;;18.39;49.42;97117.94;5093463;28;20031;-45
2022/11/17 12:47:22;;;;;;;2.75;1.15;;;;;;;18.52;49.35;97124.34;5093273;28;20103;-46
2022/11/17 12:50:06;;;;;;;4.93;1.92;;;;;;;18.64;49.01;97115.94;5091983;28;20024;-45
2022/11/17 12:53:11;;;;;;;8.82;1.65;;;;;;;18.72;48.86;97118.69;5093294;28;20031;-45
2022/11/17 12:55:50;;;;;;;7.53;2.67;;;;;;;18.78;48.15;97116.75;5091913;28;20093;-46
2022/11/17 12:58:47;;;;;;;6.78;2.95;;;;;;;18.73;48.33;97109.66;5075123;28;20390;-46
2022/11/17 13:01:40;;;;;;;47.83;43.75;;;;;;;18.62;48.78;97102.16;5091806;28;20066;-45
2022/11/17 13:04:12;;;;;;;7.90;3.70;;;;;;;18.65;48.76;97104.22;5091730;28;20031;-46
2022/11/17 13:06:38;;;;;;;4.85;2.50;;;;;;;18.63;48.73;97088.56;5091655;28;20028;-46
2022/11/17 13:09:11;;;;;;;8.55;2.97;;;;;;;18.67;48.81;97080.78;5092975;28;20020;-46
2022/11/17 13:11:37;;;;;;;8.50;3.20;;;;;;;18.61;48.85;97092.59;5091602;28;20028;-46
2022/11/17 13:14:12;;;;;;;10.00;3.00;;;;;;;18.54;49.11;97098.28;5092829;28;20061;-46
2022/11/17 13:16:49;;;;;;;13.35;3.47;;;;;;;18.45;49.21;97108.78;5092839;28;20035;-46
2022/11/17 13:19:41;;;;;;;9.43;3.28;;;;;;;18.45;49.42;97108.78;5074649;28;20130;-46
2022/11/17 13:22:09;;;;;;;12.75;3.35;;;;;;;18.35;49.55;97099.13;5089702;28;20036;-46
2022/11/17 13:24:38;;;;;;;8.85;3.22;;;;;;;18.31;50.25;97103.44;5092439;28;20511;-45
2022/11/17 13:27:15;;;;;;;5.90;2.35;;;;;;;18.30;50.07;97085.91;5091308;28;20016;-46
2022/11/17 13:29:41;;;;;;;9.05;2.42;;;;;;;18.28;50.31;97089.94;5092606;28;20032;-46
2022/11/17 13:32:22;;;;;;;8.73;2.40;;;;;;;18.27;50.55;97083.03;5091385;28;20020;-46
2022/11/17 13:34:55;;;;;;;8.38;2.63;;;;;;;18.34;50.74;97064.88;5092456;28;20028;-46